Time;durP1;ratioP1;P1;durP2;ratioP2;P2;SDS_P1;SDS_P2;PMS_P1;PMS_P2;Temp;Humidity;BMP_temperature;BMP_pressure;BME280_temperature;BME280_humidity;BME280_pressure;Samples;Min_cycle;Max_cycle;Signal;HPM_P1;HPM_P2
2021/12/10 00:00:56;;;;;;;75.90;45.47;;;4.60;99.90;;;;;;5065805;28;20044;-71
2021/12/10 00:03:32;;;;;;;92.60;47.88;;;4.60;99.90;;;;;;5070701;28;20778;-71
2021/12/10 00:06:05;;;;;;;82.75;43.88;;;4.60;99.90;;;;;;5067525;28;20051;-71
2021/12/10 00:08:32;;;;;;;85.32;47.42;;;4.70;99.90;;;;;;5064839;28;20071;-71
2021/12/10 00:11:04;;;;;;;77.88;44.53;;;4.60;99.90;;;;;;5066462;28;20119;-71
2021/12/10 00:13:30;;;;;;;80.82;44.20;;;4.60;99.90;;;;;;5051888;28;20051;-71
2021/12/10 00:15:56;;;;;;;72.28;45.10;;;4.60;99.90;;;;;;5055792;28;20521;-71
2021/12/10 00:18:30;;;;;;;79.13;45.47;;;4.60;99.90;;;;;;5065273;28;20131;-71
2021/12/10 00:20:58;;;;;;;80.45;44.28;;;4.60;99.90;;;;;;5066425;28;20858;-71
2021/12/10 00:23:28;;;;;;;80.65;45.97;;;4.60;99.90;;;;;;5067306;28;20051;-71
2021/12/10 00:25:53;;;;;;;81.82;46.53;;;4.60;99.90;;;;;;5072235;28;20044;-71
2021/12/10 00:28:28;;;;;;;89.68;47.28;;;4.60;99.90;;;;;;5062980;28;20125;-71
2021/12/10 00:31:14;;;;;;;71.55;44.38;;;4.70;99.90;;;;;;5072408;28;20059;-71
2021/12/10 00:33:43;;;;;;;85.10;46.67;;;4.60;99.90;;;;;;5067610;28;20041;-70
2021/12/10 00:36:09;;;;;;;78.25;44.05;;;4.60;99.90;;;;;;5067382;28;20113;-71
2021/12/10 00:38:36;;;;;;;80.13;44.70;;;4.60;99.90;;;;;;5070141;28;20480;-71
2021/12/10 00:41:05;;;;;;;77.75;46.08;;;4.60;99.90;;;;;;5070290;28;20040;-71
2021/12/10 00:43:31;;;;;;;77.03;43.42;;;4.70;99.90;;;;;;5057510;28;20516;-71
2021/12/10 00:45:56;;;;;;;82.75;42.22;;;4.60;99.90;;;;;;5068809;28;20044;-71
2021/12/10 00:48:22;;;;;;;74.65;43.75;;;4.70;99.90;;;;;;5066147;28;20398;-71
2021/12/10 00:50:51;;;;;;;70.32;41.50;;;4.60;99.90;;;;;;5070737;28;20155;-71
2021/12/10 00:53:18;;;;;;;76.65;43.83;;;4.70;99.90;;;;;;5069642;28;20059;-71
2021/12/10 00:55:44;;;;;;;82.80;44.47;;;4.70;99.90;;;;;;5055793;28;20469;-71
2021/12/10 00:58:11;;;;;;;72.63;43.40;;;4.70;99.90;;;;;;5067476;28;20049;-71
2021/12/10 01:00:41;;;;;;;68.85;41.72;;;4.70;99.90;;;;;;5073502;28;20048;-71
2021/12/10 01:03:09;;;;;;;81.15;43.35;;;4.70;99.90;;;;;;5068059;28;20109;-71
2021/12/10 01:05:39;;;;;;;76.40;41.92;;;4.70;99.90;;;;;;5061667;28;20049;-71
2021/12/10 01:08:05;;;;;;;83.97;43.88;;;4.70;99.90;;;;;;5065116;28;20050;-71
2021/12/10 01:10:46;;;;;;;85.68;43.95;;;4.70;99.90;;;;;;5067370;28;20484;-71
2021/12/10 01:13:15;;;;;;;79.72;42.15;;;4.70;99.90;;;;;;5066060;28;20414;-71
2021/12/10 01:23:54;;;;;;;69.10;39.60;;;4.70;99.90;;;;;;5066556;28;20505;-71
2021/12/10 01:27:10;;;;;;;66.57;38.33;;;4.70;99.90;;;;;;5081447;28;20056;-71
2021/12/10 01:29:34;;;;;;;65.35;37.38;;;4.70;99.90;;;;;;5065910;28;20075;-71
2021/12/10 01:32:05;;;;;;;72.68;39.65;;;4.70;99.90;;;;;;5069553;28;20043;-71
2021/12/10 01:34:30;;;;;;;73.50;39.65;;;4.70;99.90;;;;;;5064212;28;20048;-71
2021/12/10 01:36:57;;;;;;;66.07;39.00;;;4.70;99.90;;;;;;5072168;28;20048;-71
2021/12/10 01:39:27;;;;;;;65.05;37.92;;;4.70;99.90;;;;;;5066470;28;20087;-71
2021/12/10 01:42:00;;;;;;;63.67;37.58;;;4.70;99.90;;;;;;5062318;28;20047;-71
2021/12/10 01:44:32;;;;;;;60.08;36.78;;;4.70;99.90;;;;;;5058533;28;20048;-71
2021/12/10 01:47:03;;;;;;;61.92;38.85;;;4.70;99.90;;;;;;5055682;28;20082;-71
2021/12/10 01:49:29;;;;;;;58.38;36.95;;;4.70;99.90;;;;;;5071765;28;20055;-71
2021/12/10 01:51:56;;;;;;;60.20;36.50;;;4.60;99.90;;;;;;5057847;28;20043;-71
2021/12/10 01:54:27;;;;;;;63.92;35.85;;;4.60;99.90;;;;;;5065756;28;20057;-71
2021/12/10 01:56:56;;;;;;;60.50;37.25;;;4.60;99.90;;;;;;5058290;28;20048;-71
2021/12/10 01:59:25;;;;;;;58.63;36.40;;;4.60;99.90;;;;;;5067530;28;20052;-71
2021/12/10 02:01:56;;;;;;;65.00;36.92;;;4.60;99.90;;;;;;5067747;28;20591;-71
2021/12/10 02:04:24;;;;;;;64.05;35.42;;;4.60;99.90;;;;;;5060759;28;20576;-71
2021/12/10 02:06:51;;;;;;;62.83;32.85;;;4.60;99.90;;;;;;5070569;28;20763;-71
2021/12/10 02:09:18;;;;;;;54.45;32.60;;;4.60;99.90;;;;;;5068452;28;20046;-71
2021/12/10 02:11:45;;;;;;;61.42;34.05;;;4.60;99.90;;;;;;5058136;28;20067;-71
2021/12/10 02:14:11;;;;;;;50.97;34.28;;;4.60;99.90;;;;;;5070155;28;20063;-71
2021/12/10 02:16:38;;;;;;;50.30;31.63;;;4.60;99.90;;;;;;5088701;28;20123;-71
2021/12/10 02:19:06;;;;;;;52.58;31.60;;;4.60;99.90;;;;;;5058802;28;20048;-71
2021/12/10 02:21:34;;;;;;;58.17;31.60;;;4.60;99.90;;;;;;5062724;28;20132;-71
2021/12/10 02:24:01;;;;;;;55.50;30.63;;;4.60;99.90;;;;;;5068158;28;20059;-71
2021/12/10 02:26:40;;;;;;;49.83;32.15;;;4.60;99.90;;;;;;5069866;28;20061;-71
2021/12/10 02:29:07;;;;;;;55.67;31.42;;;4.60;99.90;;;;;;5064328;28;20056;-71
2021/12/10 02:31:33;;;;;;;49.53;31.48;;;4.60;99.90;;;;;;5065862;28;20115;-71
2021/12/10 02:34:01;;;;;;;47.13;29.20;;;4.60;99.90;;;;;;5063308;28;20119;-71
2021/12/10 02:36:27;;;;;;;45.83;27.33;;;4.60;99.90;;;;;;5064303;28;20135;-71
2021/12/10 02:38:54;;;;;;;42.33;27.80;;;4.50;99.90;;;;;;5049150;28;20595;-71
2021/12/10 02:41:23;;;;;;;46.95;30.23;;;4.50;99.90;;;;;;5066604;28;20787;-71
2021/12/10 02:43:48;;;;;;;45.95;28.42;;;4.50;99.90;;;;;;5049875;28;20055;-71
2021/12/10 02:46:15;;;;;;;46.83;28.67;;;4.50;99.90;;;;;;5059131;28;20406;-71
2021/12/10 02:48:41;;;;;;;51.53;29.88;;;4.50;99.90;;;;;;5068412;28;20052;-71
2021/12/10 02:51:07;;;;;;;46.58;28.83;;;4.50;99.90;;;;;;5062330;28;20055;-71
2021/12/10 02:53:40;;;;;;;44.90;28.20;;;4.50;99.90;;;;;;5067935;28;20481;-71
2021/12/10 02:56:06;;;;;;;50.50;29.08;;;4.40;99.90;;;;;;5066589;28;20162;-71
2021/12/10 02:58:32;;;;;;;48.08;28.80;;;4.40;99.90;;;;;;5066805;28;20202;-71
2021/12/10 03:01:13;;;;;;;50.15;27.77;;;4.50;99.90;;;;;;5088834;28;20070;-71
2021/12/10 03:03:41;;;;;;;49.97;27.88;;;4.50;99.90;;;;;;5069268;28;20043;-71
2021/12/10 03:06:11;;;;;;;46.80;27.80;;;4.50;99.90;;;;;;5085851;28;20059;-71
2021/12/10 03:08:42;;;;;;;42.75;27.70;;;4.40;99.90;;;;;;5069463;28;20045;-71
2021/12/10 03:11:09;;;;;;;53.67;28.27;;;4.50;99.90;;;;;;5065960;28;20055;-71
2021/12/10 03:13:35;;;;;;;52.33;29.52;;;4.50;99.90;;;;;;5069972;28;20055;-71
2021/12/10 03:16:01;;;;;;;50.67;29.48;;;4.50;99.90;;;;;;5067494;28;20047;-71
2021/12/10 03:18:27;;;;;;;49.35;29.17;;;4.50;99.90;;;;;;5069298;28;20050;-71
2021/12/10 03:20:53;;;;;;;52.35;29.95;;;4.50;99.90;;;;;;5068934;28;20400;-71
2021/12/10 03:23:19;;;;;;;52.10;28.20;;;4.50;99.90;;;;;;5071256;28;20040;-71
2021/12/10 03:25:45;;;;;;;45.40;26.88;;;4.50;99.90;;;;;;5067104;28;20452;-71
2021/12/10 03:28:11;;;;;;;53.63;28.75;;;4.50;99.90;;;;;;5062833;28;20152;-71
2021/12/10 03:30:43;;;;;;;47.78;29.10;;;4.50;99.90;;;;;;5079651;28;20051;-71
2021/12/10 03:33:09;;;;;;;49.35;29.83;;;4.50;99.90;;;;;;5069560;28;20149;-71
2021/12/10 03:35:42;;;;;;;45.85;27.35;;;4.50;99.90;;;;;;5053670;28;20090;-71
2021/12/10 03:38:12;;;;;;;52.50;31.15;;;4.50;99.90;;;;;;5067184;28;20170;-71
2021/12/10 03:40:38;;;;;;;50.80;30.05;;;4.50;99.90;;;;;;5063626;28;20049;-71
2021/12/10 03:43:04;;;;;;;54.85;31.17;;;4.50;99.90;;;;;;5063751;28;20044;-71
2021/12/10 03:45:35;;;;;;;49.45;30.52;;;4.50;99.90;;;;;;5067012;28;20040;-71
2021/12/10 03:48:08;;;;;;;61.67;33.42;;;4.50;99.90;;;;;;5068730;28;20040;-71
2021/12/10 03:50:33;;;;;;;57.35;34.47;;;4.50;99.90;;;;;;5069026;28;20103;-71
2021/12/10 03:52:59;;;;;;;59.42;34.53;;;4.50;99.90;;;;;;5058583;28;20905;-71
2021/12/10 03:55:26;;;;;;;52.30;35.33;;;4.50;99.90;;;;;;5063945;28;20058;-71
2021/12/10 03:57:54;;;;;;;55.17;34.30;;;4.50;99.90;;;;;;5067264;28;20048;-71
2021/12/10 04:00:24;;;;;;;61.70;37.05;;;4.50;99.90;;;;;;5059078;28;20048;-71
2021/12/10 04:02:50;;;;;;;60.17;37.75;;;4.50;99.90;;;;;;5065173;28;20041;-71
2021/12/10 04:05:16;;;;;;;58.72;35.72;;;4.50;99.90;;;;;;5061960;28;20102;-71
2021/12/10 04:07:42;;;;;;;56.88;37.53;;;4.40;99.90;;;;;;5066093;28;20569;-71
2021/12/10 04:10:11;;;;;;;53.92;37.42;;;4.40;99.90;;;;;;5073361;28;20036;-71
2021/12/10 04:12:37;;;;;;;66.53;36.70;;;4.40;99.90;;;;;;5071062;28;20101;-71
2021/12/10 04:15:05;;;;;;;58.30;38.63;;;4.40;99.90;;;;;;5068790;28;20040;-71
2021/12/10 04:17:31;;;;;;;56.55;36.53;;;4.40;99.90;;;;;;5068526;28;20055;-71
2021/12/10 04:19:57;;;;;;;49.75;33.83;;;4.30;99.90;;;;;;5069611;28;20514;-71
2021/12/10 04:22:26;;;;;;;58.90;36.38;;;4.30;99.90;;;;;;5072604;28;20047;-71
2021/12/10 04:24:52;;;;;;;54.15;34.22;;;4.30;99.90;;;;;;5068926;28;20113;-71
2021/12/10 04:27:18;;;;;;;62.35;36.47;;;4.20;99.90;;;;;;5066495;28;20053;-71
2021/12/10 04:29:45;;;;;;;53.33;34.85;;;4.20;99.90;;;;;;5061034;28;20052;-71
2021/12/10 04:32:13;;;;;;;64.60;35.47;;;4.10;99.90;;;;;;5069328;28;20119;-71
2021/12/10 04:34:39;;;;;;;54.95;36.88;;;4.10;99.90;;;;;;5068213;28;20398;-71
2021/12/10 04:37:07;;;;;;;51.05;35.30;;;4.00;99.90;;;;;;5062797;28;20552;-71
2021/12/10 04:39:37;;;;;;;55.55;36.80;;;4.10;99.90;;;;;;5070173;28;20056;-71
2021/12/10 04:42:04;;;;;;;57.42;38.75;;;4.00;99.90;;;;;;5064906;28;20056;-71
2021/12/10 04:44:29;;;;;;;57.40;37.70;;;4.00;99.90;;;;;;5063340;28;20089;-71
2021/12/10 04:46:55;;;;;;;60.78;38.90;;;3.90;99.90;;;;;;5069517;28;20044;-71
2021/12/10 04:49:21;;;;;;;59.70;39.42;;;3.80;99.90;;;;;;5066479;28;20114;-71
2021/12/10 04:51:51;;;;;;;73.97;42.17;;;3.80;99.90;;;;;;5069183;28;20485;-71
2021/12/10 04:54:20;;;;;;;67.70;41.92;;;3.70;99.90;;;;;;5064865;28;20075;-71
2021/12/10 04:56:47;;;;;;;66.68;42.88;;;3.70;99.90;;;;;;5055324;28;20049;-71
2021/12/10 04:59:16;;;;;;;71.57;45.72;;;3.60;99.90;;;;;;5051160;28;20122;-71
2021/12/10 05:01:42;;;;;;;63.50;42.30;;;3.50;99.90;;;;;;5066155;28;20052;-71
2021/12/10 05:04:09;;;;;;;63.88;42.15;;;3.40;99.90;;;;;;5042220;28;20128;-71
2021/12/10 05:06:36;;;;;;;59.72;41.50;;;3.30;99.90;;;;;;5057584;28;20520;-71
2021/12/10 05:09:04;;;;;;;61.58;40.95;;;3.20;99.90;;;;;;5056947;28;20049;-71
2021/12/10 05:11:30;;;;;;;;;;;3.10;99.90;;;;;;5067822;28;20158;-71
2021/12/10 05:13:56;;;;;;;59.33;40.45;;;3.00;99.90;;;;;;5069064;28;20006;-71
2021/12/10 05:16:25;;;;;;;57.70;40.35;;;2.90;99.90;;;;;;5067362;28;20755;-71
2021/12/10 05:18:58;;;;;;;56.08;38.67;;;2.90;99.90;;;;;;5067508;28;20759;-71
2021/12/10 05:21:27;;;;;;;59.30;37.45;;;2.90;99.90;;;;;;5051309;28;20512;-71
2021/12/10 05:23:53;;;;;;;50.97;36.13;;;3.00;99.90;;;;;;5068830;28;20390;-71
2021/12/10 05:26:19;;;;;;;58.60;36.90;;;3.00;99.90;;;;;;5062986;28;20064;-71
2021/12/10 05:28:45;;;;;;;56.78;36.35;;;3.00;99.90;;;;;;5058211;28;20067;-71
2021/12/10 05:31:11;;;;;;;56.17;36.92;;;2.90;99.90;;;;;;5066506;28;20048;-71
2021/12/10 05:33:37;;;;;;;50.35;35.35;;;2.80;99.90;;;;;;5070492;28;20045;-71
2021/12/10 05:36:04;;;;;;;50.85;35.63;;;2.80;99.90;;;;;;5068255;28;20544;-71
2021/12/10 05:38:31;;;;;;;47.47;34.15;;;2.70;99.90;;;;;;5070963;28;20048;-71
2021/12/10 05:41:01;;;;;;;52.13;34.15;;;2.60;99.90;;;;;;5066552;28;20467;-71
2021/12/10 05:43:26;;;;;;;52.17;35.22;;;2.60;99.90;;;;;;5068994;28;20055;-71
2021/12/10 05:45:53;;;;;;;54.83;35.35;;;2.50;99.90;;;;;;5070390;28;20413;-71
2021/12/10 05:48:20;;;;;;;51.38;35.88;;;2.40;99.90;;;;;;5068450;28;20056;-71
2021/12/10 05:50:47;;;;;;;50.75;35.50;;;2.40;99.90;;;;;;5067962;28;20128;-71
2021/12/10 05:53:13;;;;;;;53.70;35.75;;;2.30;99.90;;;;;;5059749;28;20047;-71
2021/12/10 05:55:40;;;;;;;49.90;33.58;;;2.30;99.90;;;;;;5067642;28;20052;-71
2021/12/10 05:58:07;;;;;;;55.80;37.28;;;2.20;99.90;;;;;;5068610;28;20071;-71
2021/12/10 06:00:43;;;;;;;56.42;36.53;;;2.10;99.90;;;;;;5064362;28;20444;-71
2021/12/10 06:03:09;;;;;;;54.45;36.53;;;2.00;99.90;;;;;;5056661;28;20449;-71
2021/12/10 06:05:36;;;;;;;55.35;36.33;;;2.00;99.90;;;;;;5058215;28;20052;-71
2021/12/10 06:08:05;;;;;;;55.65;37.20;;;1.90;99.90;;;;;;5075439;28;20055;-71
2021/12/10 06:10:31;;;;;;;50.97;35.53;;;1.90;99.90;;;;;;5066810;28;20076;-71
2021/12/10 06:12:57;;;;;;;51.28;35.13;;;1.80;99.90;;;;;;5067584;28;20098;-71
2021/12/10 06:15:24;;;;;;;50.97;34.85;;;1.80;99.90;;;;;;5065110;28;20041;-71
2021/12/10 06:17:50;;;;;;;53.28;34.13;;;1.70;99.90;;;;;;5060376;28;20049;-71
2021/12/10 06:20:19;;;;;;;53.55;34.10;;;1.70;99.90;;;;;;5064407;28;20056;-71
2021/12/10 06:22:45;;;;;;;48.22;32.45;;;1.60;99.90;;;;;;5054297;28;20095;-71
2021/12/10 06:25:11;;;;;;;46.55;32.10;;;1.60;99.90;;;;;;5055873;28;20055;-71
2021/12/10 06:27:44;;;;;;;55.53;33.13;;;1.60;99.90;;;;;;5049307;28;20049;-71
2021/12/10 06:30:13;;;;;;;47.25;32.88;;;1.60;99.90;;;;;;5058965;28;20497;-71
2021/12/10 06:32:41;;;;;;;46.50;31.83;;;1.60;99.90;;;;;;5060328;28;20037;-71
2021/12/10 06:35:08;;;;;;;50.05;31.88;;;1.50;99.90;;;;;;5065432;28;20052;-71
2021/12/10 06:37:35;;;;;;;48.92;31.13;;;1.50;99.90;;;;;;5067456;28;20132;-71
2021/12/10 06:40:01;;;;;;;53.47;31.58;;;1.50;99.90;;;;;;5051378;28;20057;-71
2021/12/10 06:42:28;;;;;;;45.83;28.70;;;1.40;99.90;;;;;;5061356;28;20401;-70
2021/12/10 06:44:53;;;;;;;47.83;30.10;;;1.40;99.90;;;;;;5061726;28;20063;-71
2021/12/10 06:47:19;;;;;;;41.47;28.73;;;1.40;99.90;;;;;;5065365;28;20486;-71
2021/12/10 06:49:44;;;;;;;42.97;27.52;;;1.30;99.90;;;;;;5058969;28;20037;-70
2021/12/10 06:52:10;;;;;;;45.38;29.70;;;1.30;99.90;;;;;;5066745;28;20082;-70
2021/12/10 06:54:38;;;;;;;45.38;28.52;;;1.30;99.90;;;;;;5064407;28;20060;-71
2021/12/10 06:57:04;;;;;;;33.10;25.40;;;1.30;99.90;;;;;;5063936;28;20048;-71
2021/12/10 06:59:30;;;;;;;39.13;26.33;;;1.30;99.90;;;;;;5059607;28;20430;-71
2021/12/10 07:01:55;;;;;;;42.08;26.40;;;1.20;99.90;;;;;;5063605;28;20041;-70
2021/12/10 07:04:21;;;;;;;40.63;25.48;;;1.20;99.90;;;;;;5056880;28;20067;-70
2021/12/10 07:06:47;;;;;;;37.30;25.00;;;1.20;99.90;;;;;;5063790;28;20398;-70
2021/12/10 07:09:19;;;;;;;41.38;26.35;;;1.10;99.90;;;;;;5067180;28;20059;-71
2021/12/10 07:11:47;;;;;;;40.97;24.83;;;1.10;99.90;;;;;;5066299;28;20045;-71
2021/12/10 07:14:13;;;;;;;41.53;26.95;;;1.00;99.90;;;;;;5063769;28;20061;-70
2021/12/10 07:16:38;;;;;;;37.40;24.92;;;0.90;99.90;;;;;;5065532;28;20405;-71
2021/12/10 07:19:06;;;;;;;42.83;26.50;;;0.90;99.90;;;;;;5061854;28;20075;-71
2021/12/10 07:21:33;;;;;;;42.72;25.95;;;0.90;99.90;;;;;;5054294;28;20048;-71
2021/12/10 07:24:05;;;;;;;39.17;25.98;;;0.90;99.90;;;;;;5067219;28;20047;-71
2021/12/10 07:26:33;;;;;;;36.33;25.30;;;0.90;99.90;;;;;;5083672;28;20056;-71
2021/12/10 07:28:59;;;;;;;46.55;26.67;;;0.90;99.90;;;;;;5061728;28;20060;-71
2021/12/10 07:31:26;;;;;;;39.95;27.35;;;1.00;99.90;;;;;;5059142;28;20574;-71
2021/12/10 07:33:53;;;;;;;38.65;26.30;;;1.00;99.90;;;;;;5060433;28;20053;-70
2021/12/10 07:36:19;;;;;;;41.47;27.48;;;1.00;99.90;;;;;;5064130;28;20053;-70
2021/12/10 07:38:45;;;;;;;45.33;26.80;;;1.00;99.90;;;;;;5059751;28;20402;-70
2021/12/10 07:41:11;;;;;;;42.72;26.05;;;1.00;99.90;;;;;;5058563;28;20485;-70
2021/12/10 07:43:37;;;;;;;47.28;27.75;;;1.00;99.90;;;;;;5060529;28;20516;-71
2021/12/10 07:46:04;;;;;;;51.70;26.95;;;1.00;99.90;;;;;;5065864;28;20041;-70
2021/12/10 07:48:30;;;;;;;36.80;25.90;;;1.00;99.90;;;;;;5063731;28;20072;-70
2021/12/10 07:51:04;;;;;;;43.72;25.55;;;1.00;99.90;;;;;;5056810;28;20482;-70
2021/12/10 07:53:32;;;;;;;39.20;25.73;;;1.10;99.90;;;;;;5065757;28;20044;-70
2021/12/10 07:56:01;;;;;;;41.17;25.00;;;1.00;99.90;;;;;;5064760;28;20067;-71
2021/12/10 07:58:29;;;;;;;40.53;24.38;;;1.00;99.90;;;;;;5064291;28;20049;-70
2021/12/10 08:00:55;;;;;;;41.08;23.67;;;1.10;99.90;;;;;;5060581;28;20045;-71
2021/12/10 08:03:21;;;;;;;38.97;24.40;;;1.10;99.90;;;;;;5062915;28;20044;-71
2021/12/10 08:05:48;;;;;;;36.17;24.30;;;1.10;99.90;;;;;;5047111;28;20504;-71
2021/12/10 08:08:14;;;;;;;44.60;26.17;;;1.10;99.90;;;;;;5071912;28;20045;-70
2021/12/10 08:10:42;;;;;;;47.45;26.38;;;1.10;99.90;;;;;;5066325;28;20497;-71
2021/12/10 08:13:08;;;;;;;36.33;25.02;;;1.20;99.90;;;;;;5062781;28;20056;-70
2021/12/10 08:15:35;;;;;;;42.08;25.48;;;1.10;99.90;;;;;;5052860;28;20053;-70
2021/12/10 08:18:03;;;;;;;43.35;25.60;;;1.10;99.90;;;;;;5072147;28;20044;-70
2021/12/10 08:20:30;;;;;;;48.15;26.92;;;1.20;99.90;;;;;;5064013;28;20045;-70
2021/12/10 08:22:56;;;;;;;41.35;25.27;;;1.20;99.90;;;;;;5072912;28;20488;-70
2021/12/10 08:25:23;;;;;;;43.83;25.98;;;1.20;99.90;;;;;;5067467;28;20047;-70
2021/12/10 08:27:51;;;;;;;37.17;25.50;;;1.20;99.90;;;;;;5065602;28;20063;-70
2021/12/10 08:30:20;;;;;;;43.22;24.08;;;1.20;99.90;;;;;;5064982;28;20051;-70
2021/12/10 08:32:46;;;;;;;44.00;26.15;;;1.30;99.90;;;;;;5060020;28;20076;-70
2021/12/10 08:35:16;;;;;;;44.10;25.58;;;1.30;99.90;;;;;;5057983;28;20049;-70
2021/12/10 08:37:42;;;;;;;34.92;23.55;;;1.30;99.90;;;;;;5063617;28;20045;-70
2021/12/10 08:40:12;;;;;;;36.08;24.27;;;1.30;99.90;;;;;;5064410;28;20063;-71
2021/12/10 08:42:38;;;;;;;32.67;23.83;;;1.40;99.90;;;;;;5055207;28;20044;-70
2021/12/10 08:45:05;;;;;;;33.53;23.10;;;1.40;99.90;;;;;;5063829;28;20056;-70
2021/12/10 08:47:30;;;;;;;41.17;24.85;;;1.40;99.90;;;;;;5066466;28;20048;-70
2021/12/10 08:49:56;;;;;;;38.03;24.33;;;1.40;99.90;;;;;;5067679;28;20044;-70
2021/12/10 08:52:22;;;;;;;43.22;23.55;;;1.50;99.90;;;;;;5067025;28;20060;-70
2021/12/10 08:54:48;;;;;;;31.50;22.95;;;1.60;99.90;;;;;;5067441;28;20053;-70
2021/12/10 08:57:14;;;;;;;31.77;22.67;;;1.60;99.90;;;;;;5064932;28;20051;-70
2021/12/10 08:59:41;;;;;;;37.47;23.25;;;1.60;99.90;;;;;;5050634;28;20044;-70
2021/12/10 09:02:11;;;;;;;37.40;23.65;;;1.70;99.90;;;;;;5079236;28;20063;-70
2021/12/10 09:04:37;;;;;;;31.33;22.10;;;1.70;99.90;;;;;;5065240;28;20116;-69
2021/12/10 09:07:15;;;;;;;35.47;22.05;;;1.80;99.90;;;;;;5065241;28;20621;-70
2021/12/10 09:09:44;;;;;;;34.13;22.30;;;1.80;99.90;;;;;;5067759;28;20079;-70
2021/12/10 09:12:17;;;;;;;35.90;22.17;;;1.80;99.90;;;;;;5077197;28;20051;-70
2021/12/10 09:14:48;;;;;;;34.80;22.80;;;1.90;99.90;;;;;;5046530;28;20158;-70
2021/12/10 09:17:20;;;;;;;29.92;20.35;;;2.00;99.90;;;;;;5064965;28;20049;-70
2021/12/10 09:19:46;;;;;;;30.98;20.05;;;2.00;99.90;;;;;;5058093;28;20044;-70
2021/12/10 09:22:12;;;;;;;40.78;21.63;;;2.10;99.90;;;;;;5061306;28;20045;-71
2021/12/10 09:24:40;;;;;;;29.67;20.20;;;2.20;99.90;;;;;;5067352;28;20095;-70
2021/12/10 09:27:06;;;;;;;38.50;22.00;;;2.20;99.90;;;;;;5068850;28;20498;-70
2021/12/10 09:29:35;;;;;;;28.90;20.60;;;2.30;99.90;;;;;;5066039;28;20094;-70
2021/12/10 09:32:08;;;;;;;33.25;20.20;;;2.40;99.90;;;;;;5062067;28;20029;-70
2021/12/10 09:34:34;;;;;;;30.90;19.95;;;2.50;99.90;;;;;;5059105;28;20422;-70
2021/12/10 09:37:00;;;;;;;33.58;19.48;;;2.60;99.90;;;;;;5066498;28;20078;-70
2021/12/10 09:39:26;;;;;;;40.70;21.35;;;2.60;99.90;;;;;;5064175;28;20053;-70
2021/12/10 09:41:53;;;;;;;32.97;20.00;;;2.70;99.90;;;;;;5066849;28;20052;-70
2021/12/10 09:44:20;;;;;;;28.63;20.17;;;2.80;99.90;;;;;;5066003;28;20072;-70
2021/12/10 09:46:47;;;;;;;33.70;20.70;;;2.80;99.90;;;;;;5064347;28;20041;-70
2021/12/10 09:49:13;;;;;;;28.35;19.58;;;2.90;99.90;;;;;;5049436;28;20055;-70
2021/12/10 09:51:49;;;;;;;31.27;21.05;;;2.90;99.90;;;;;;5066436;28;20499;-70
2021/12/10 09:54:21;;;;;;;29.92;20.10;;;3.00;99.90;;;;;;5066525;28;20055;-70
2021/12/10 09:56:57;;;;;;;27.30;18.58;;;3.10;99.90;;;;;;5065991;28;20053;-70
2021/12/10 09:59:24;;;;;;;28.55;20.48;;;3.20;99.90;;;;;;5066306;28;20827;-71
2021/12/10 10:01:52;;;;;;;26.33;18.20;;;3.20;99.90;;;;;;5068699;28;20056;-71
2021/12/10 10:04:22;;;;;;;35.08;21.10;;;3.30;99.90;;;;;;5066923;28;20048;-71
2021/12/10 10:06:52;;;;;;;29.30;17.88;;;3.40;99.90;;;;;;5064168;28;20049;-71
2021/12/10 10:09:20;;;;;;;27.15;17.38;;;3.50;99.90;;;;;;5066159;28;20051;-71
2021/12/10 10:12:02;;;;;;;31.08;17.90;;;3.50;99.90;;;;;;5059479;28;20048;-71
2021/12/10 10:14:28;;;;;;;26.35;16.23;;;3.60;99.90;;;;;;5061767;28;20129;-71
2021/12/10 10:16:54;;;;;;;26.58;18.27;;;3.70;99.90;;;;;;5050004;28;20119;-71
2021/12/10 10:19:20;;;;;;;22.27;15.93;;;3.80;99.90;;;;;;5065859;28;20052;-71
2021/12/10 10:21:50;;;;;;;29.35;17.50;;;3.80;99.90;;;;;;5065956;28;20444;-71
2021/12/10 10:24:18;;;;;;;24.13;16.48;;;3.80;99.90;;;;;;5067379;28;20045;-71
2021/12/10 10:26:49;;;;;;;24.55;15.82;;;3.90;99.90;;;;;;5069491;28;20078;-71
2021/12/10 10:29:19;;;;;;;22.38;17.25;;;3.90;99.90;;;;;;5068979;28;20044;-72
2021/12/10 10:31:50;;;;;;;22.08;16.13;;;3.90;99.90;;;;;;5070806;28;20063;-71
2021/12/10 10:34:17;;;;;;;26.48;16.33;;;4.00;99.90;;;;;;5070923;28;20049;-71
2021/12/10 10:36:43;;;;;;;20.63;15.70;;;4.10;99.90;;;;;;5065881;28;20056;-71
2021/12/10 10:39:20;;;;;;;22.02;14.45;;;4.10;99.90;;;;;;5064069;28;20435;-71
2021/12/10 10:41:49;;;;;;;21.23;14.80;;;4.20;99.90;;;;;;5065622;28;20044;-71
2021/12/10 10:44:17;;;;;;;22.13;15.15;;;4.20;99.90;;;;;;5068777;28;20044;-71
2021/12/10 10:46:45;;;;;;;22.30;13.83;;;4.30;99.90;;;;;;5071147;28;20036;-71
2021/12/10 10:49:34;;;;;;;20.60;15.00;;;4.30;99.90;;;;;;5065009;28;20286;-72
2021/12/10 10:52:28;;;;;;;17.67;13.45;;;4.40;99.90;;;;;;5069010;28;20081;-72
2021/12/10 10:54:56;;;;;;;20.73;14.52;;;4.40;99.90;;;;;;5066030;28;20123;-72
2021/12/10 10:57:26;;;;;;;17.27;12.80;;;4.50;99.90;;;;;;5069121;28;20155;-72
2021/12/10 10:59:59;;;;;;;17.98;12.70;;;4.50;99.90;;;;;;5068330;28;20045;-72
2021/12/10 11:02:36;;;;;;;20.98;13.35;;;4.60;99.90;;;;;;5067209;28;20370;-72
2021/12/10 11:05:10;;;;;;;20.07;12.87;;;4.70;99.90;;;;;;5066823;28;20177;-72
2021/12/10 11:07:49;;;;;;;18.27;12.65;;;4.70;99.90;;;;;;5063607;28;20337;-72
2021/12/10 11:10:26;;;;;;;21.52;12.50;;;4.80;99.90;;;;;;5066559;28;20386;-72
2021/12/10 11:12:53;;;;;;;23.00;12.30;;;4.80;99.90;;;;;;5067218;28;20045;-72
2021/12/10 11:15:19;;;;;;;20.20;12.90;;;4.80;99.90;;;;;;5052818;28;20127;-72
2021/12/10 11:17:46;;;;;;;28.25;11.98;;;4.80;99.90;;;;;;5070631;28;20557;-72
2021/12/10 11:20:25;;;;;;;19.63;12.95;;;4.80;99.90;;;;;;5068992;28;20409;-72
2021/12/10 11:22:52;;;;;;;;;;;4.90;99.90;;;;;;5068551;28;20089;-72
2021/12/10 11:25:21;;;;;;;13.85;11.05;;;4.90;99.90;;;;;;5065322;28;19964;-72
2021/12/10 11:27:54;;;;;;;18.75;11.57;;;4.90;99.90;;;;;;5062279;28;20564;-72
2021/12/10 11:30:27;;;;;;;16.10;11.82;;;4.90;99.90;;;;;;5058198;28;20059;-72
2021/12/10 11:33:06;;;;;;;17.05;11.93;;;4.90;99.90;;;;;;5067615;28;20130;-72
2021/12/10 11:35:44;;;;;;;19.55;10.52;;;5.00;99.90;;;;;;5066478;28;20386;-72
2021/12/10 11:38:14;;;;;;;16.10;11.02;;;5.00;99.90;;;;;;5066215;28;20050;-72
2021/12/10 11:41:06;;;;;;;18.45;11.20;;;5.00;99.90;;;;;;5066118;28;20044;-72
2021/12/10 11:46:46;;;;;;;17.20;10.45;;;5.00;99.90;;;;;;5067989;28;20404;-72
2021/12/10 11:49:24;;;;;;;19.55;9.57;;;5.00;99.90;;;;;;5065459;28;20040;-72
2021/12/10 11:51:54;;;;;;;16.27;10.73;;;5.00;99.90;;;;;;5064945;28;20040;-71
2021/12/10 11:54:27;;;;;;;19.13;11.95;;;5.00;99.90;;;;;;5063083;28;20087;-72
2021/12/10 11:56:59;;;;;;;15.05;10.32;;;5.00;99.90;;;;;;5054804;28;20041;-72
2021/12/10 11:59:34;;;;;;;15.45;11.13;;;5.00;99.90;;;;;;5052810;28;20048;-72
2021/12/10 12:02:11;;;;;;;19.67;10.05;;;5.00;99.90;;;;;;5070131;28;20052;-72
2021/12/10 12:04:53;;;;;;;20.35;10.73;;;5.00;99.90;;;;;;5070777;28;20065;-72
2021/12/10 12:07:18;;;;;;;17.45;9.90;;;5.10;99.90;;;;;;5068893;28;20063;-71
2021/12/10 12:09:58;;;;;;;12.80;9.50;;;5.20;99.90;;;;;;5054678;28;20044;-72
2021/12/10 12:12:51;;;;;;;15.02;9.52;;;5.20;99.90;;;;;;5060072;28;20055;-72
2021/12/10 12:15:45;;;;;;;11.82;8.32;;;5.20;99.90;;;;;;5070586;28;20079;-71
2021/12/10 12:18:14;;;;;;;13.52;9.52;;;5.20;99.90;;;;;;5068532;28;20139;-71
2021/12/10 12:20:52;;;;;;;14.40;8.50;;;5.20;99.90;;;;;;5067923;28;20045;-72
2021/12/10 12:26:18;;;;;;;;;;;5.10;99.90;;;;;;5067653;28;20056;-72
2021/12/10 12:28:59;;;;;;;14.53;9.47;;;5.00;99.90;;;;;;5071051;28;19928;-71
2021/12/10 12:31:35;;;;;;;16.92;9.00;;;5.00;99.90;;;;;;5057763;28;20337;-71
2021/12/10 12:34:03;;;;;;;19.23;9.85;;;5.00;99.90;;;;;;5070036;28;20695;-72
2021/12/10 12:36:41;;;;;;;;;;;4.90;99.90;;;;;;5065252;28;20493;-72
2021/12/10 12:39:14;;;;;;;22.63;9.77;;;4.90;99.90;;;;;;5067383;28;19921;-72
2021/12/10 12:41:47;;;;;;;18.73;10.48;;;4.80;99.90;;;;;;5063964;28;20048;-72
2021/12/10 12:44:19;;;;;;;16.20;10.40;;;4.80;99.90;;;;;;5073177;28;20070;-71
2021/12/10 12:46:59;;;;;;;19.02;10.68;;;4.80;99.90;;;;;;5072333;28;20567;-72
2021/12/10 12:49:26;;;;;;;19.13;11.02;;;4.90;99.90;;;;;;5055215;28;20095;-71
2021/12/10 12:52:16;;;;;;;16.77;11.23;;;4.80;99.90;;;;;;5073012;28;20066;-71
2021/12/10 12:55:02;;;;;;;14.57;10.07;;;4.80;99.90;;;;;;5072147;28;20291;-71
2021/12/10 12:57:55;;;;;;;14.98;9.15;;;4.80;99.90;;;;;;5021679;28;20055;-71
2021/12/10 13:00:24;;;;;;;19.55;10.50;;;4.70;99.90;;;;;;5072108;28;20406;-71
2021/12/10 13:03:01;;;;;;;19.40;10.60;;;4.70;99.90;;;;;;5071383;28;20047;-71